sensor_id;sensor_type;location;lat;lon;timestamp;temperature;humidity
37478;DHT22;23334;54.316;10.182;2022-10-24T00:01:28;13.80;99.90
37478;DHT22;23334;54.316;10.182;2022-10-24T00:03:54;13.80;99.90
37478;DHT22;23334;54.316;10.182;2022-10-24T00:06:19;13.70;99.90
37478;DHT22;23334;54.316;10.182;2022-10-24T00:08:45;13.50;99.90
37478;DHT22;23334;54.316;10.182;2022-10-24T00:11:16;13.80;99.90
37478;DHT22;23334;54.316;10.182;2022-10-24T00:13:42;13.50;99.90
37478;DHT22;23334;54.316;10.182;2022-10-24T00:16:08;13.60;99.90
37478;DHT22;23334;54.316;10.182;2022-10-24T00:18:34;13.60;99.90
37478;DHT22;23334;54.316;10.182;2022-10-24T00:20:59;13.50;99.90
37478;DHT22;23334;54.316;10.182;2022-10-24T00:23:25;13.40;99.90
37478;DHT22;23334;54.316;10.182;2022-10-24T00:25:50;13.20;99.90
37478;DHT22;23334;54.316;10.182;2022-10-24T00:28:16;13.30;99.90
37478;DHT22;23334;54.316;10.182;2022-10-24T00:30:41;13.80;99.90
37478;DHT22;23334;54.316;10.182;2022-10-24T00:33:07;13.30;99.90
37478;DHT22;23334;54.316;10.182;2022-10-24T00:35:33;13.50;99.90
37478;DHT22;23334;54.316;10.182;2022-10-24T00:37:58;13.60;99.90
37478;DHT22;23334;54.316;10.182;2022-10-24T00:40:24;13.90;99.90
37478;DHT22;23334;54.316;10.182;2022-10-24T00:42:49;13.30;99.90
37478;DHT22;23334;54.316;10.182;2022-10-24T00:45:42;13.30;99.90
37478;DHT22;23334;54.316;10.182;2022-10-24T00:48:13;13.40;99.90
37478;DHT22;23334;54.316;10.182;2022-10-24T00:50:40;13.70;99.90
37478;DHT22;23334;54.316;10.182;2022-10-24T00:53:06;14.10;99.90
37478;DHT22;23334;54.316;10.182;2022-10-24T00:55:32;14.40;99.90
37478;DHT22;23334;54.316;10.182;2022-10-24T00:57:58;13.30;99.90
37478;DHT22;23334;54.316;10.182;2022-10-24T01:00:31;13.40;99.90
37478;DHT22;23334;54.316;10.182;2022-10-24T01:02:57;13.40;99.90
37478;DHT22;23334;54.316;10.182;2022-10-24T01:05:25;13.60;99.90
37478;DHT22;23334;54.316;10.182;2022-10-24T01:08:18;13.80;99.90
37478;DHT22;23334;54.316;10.182;2022-10-24T01:13:45;13.40;99.90
37478;DHT22;23334;54.316;10.182;2022-10-24T01:16:23;13.60;99.90
37478;DHT22;23334;54.316;10.182;2022-10-24T01:19:14;13.70;99.90
37478;DHT22;23334;54.316;10.182;2022-10-24T01:21:49;13.40;99.90
37478;DHT22;23334;54.316;10.182;2022-10-24T01:27:11;13.90;99.90
37478;DHT22;23334;54.316;10.182;2022-10-24T01:29:48;13.70;99.90
37478;DHT22;23334;54.316;10.182;2022-10-24T01:32:35;14.10;99.90
37478;DHT22;23334;54.316;10.182;2022-10-24T01:35:18;14.10;99.90
37478;DHT22;23334;54.316;10.182;2022-10-24T01:37:59;14.10;99.90
37478;DHT22;23334;54.316;10.182;2022-10-24T01:40:31;14.20;99.90
37478;DHT22;23334;54.316;10.182;2022-10-24T01:43:02;14.00;99.90
37478;DHT22;23334;54.316;10.182;2022-10-24T01:45:35;14.10;99.90
37478;DHT22;23334;54.316;10.182;2022-10-24T01:48:04;14.10;99.90
37478;DHT22;23334;54.316;10.182;2022-10-24T01:50:34;14.10;99.90
37478;DHT22;23334;54.316;10.182;2022-10-24T01:53:01;13.90;99.90
37478;DHT22;23334;54.316;10.182;2022-10-24T01:55:30;13.70;99.90
37478;DHT22;23334;54.316;10.182;2022-10-24T01:57:56;13.80;99.90
37478;DHT22;23334;54.316;10.182;2022-10-24T02:00:22;14.00;99.90
37478;DHT22;23334;54.316;10.182;2022-10-24T02:03:28;14.00;99.90
37478;DHT22;23334;54.316;10.182;2022-10-24T02:06:00;13.80;99.90
37478;DHT22;23334;54.316;10.182;2022-10-24T02:08:33;13.90;99.90
37478;DHT22;23334;54.316;10.182;2022-10-24T02:11:04;14.00;99.90
37478;DHT22;23334;54.316;10.182;2022-10-24T02:13:35;14.00;99.90
37478;DHT22;23334;54.316;10.182;2022-10-24T02:16:04;13.90;99.90
37478;DHT22;23334;54.316;10.182;2022-10-24T02:18:31;13.90;99.90
37478;DHT22;23334;54.316;10.182;2022-10-24T02:23:54;13.80;99.90
37478;DHT22;23334;54.316;10.182;2022-10-24T02:26:33;14.00;99.90
37478;DHT22;23334;54.316;10.182;2022-10-24T02:29:05;14.00;99.90
37478;DHT22;23334;54.316;10.182;2022-10-24T02:31:35;13.90;99.90
37478;DHT22;23334;54.316;10.182;2022-10-24T02:34:05;13.60;99.90
37478;DHT22;23334;54.316;10.182;2022-10-24T02:36:31;13.90;99.90
37478;DHT22;23334;54.316;10.182;2022-10-24T02:38:59;13.80;99.90
37478;DHT22;23334;54.316;10.182;2022-10-24T02:41:28;13.70;99.90
37478;DHT22;23334;54.316;10.182;2022-10-24T02:43:55;13.80;99.90
37478;DHT22;23334;54.316;10.182;2022-10-24T02:46:21;14.00;99.90
37478;DHT22;23334;54.316;10.182;2022-10-24T02:48:52;13.90;99.90
37478;DHT22;23334;54.316;10.182;2022-10-24T02:51:21;13.80;99.90
37478;DHT22;23334;54.316;10.182;2022-10-24T02:53:49;13.40;99.90
37478;DHT22;23334;54.316;10.182;2022-10-24T02:56:15;13.70;99.90
37478;DHT22;23334;54.316;10.182;2022-10-24T02:58:41;13.50;99.90
37478;DHT22;23334;54.316;10.182;2022-10-24T03:01:07;13.50;99.90
37478;DHT22;23334;54.316;10.182;2022-10-24T03:03:32;13.50;99.90
37478;DHT22;23334;54.316;10.182;2022-10-24T03:05:58;13.30;99.90
37478;DHT22;23334;54.316;10.182;2022-10-24T03:08:23;13.90;99.90
37478;DHT22;23334;54.316;10.182;2022-10-24T03:10:49;13.80;99.90
37478;DHT22;23334;54.316;10.182;2022-10-24T03:13:14;13.80;99.90
37478;DHT22;23334;54.316;10.182;2022-10-24T03:15:40;13.50;99.90
37478;DHT22;23334;54.316;10.182;2022-10-24T03:18:05;13.60;99.90
37478;DHT22;23334;54.316;10.182;2022-10-24T03:20:31;13.40;99.90
37478;DHT22;23334;54.316;10.182;2022-10-24T03:22:56;13.40;99.90
37478;DHT22;23334;54.316;10.182;2022-10-24T03:25:22;13.30;99.90
37478;DHT22;23334;54.316;10.182;2022-10-24T03:27:47;13.60;99.90
37478;DHT22;23334;54.316;10.182;2022-10-24T03:30:13;13.40;99.90
37478;DHT22;23334;54.316;10.182;2022-10-24T03:32:38;13.20;99.90
37478;DHT22;23334;54.316;10.182;2022-10-24T03:35:04;13.60;99.90
37478;DHT22;23334;54.316;10.182;2022-10-24T03:37:30;13.50;99.90
37478;DHT22;23334;54.316;10.182;2022-10-24T03:39:55;13.50;99.90
37478;DHT22;23334;54.316;10.182;2022-10-24T03:44:47;13.20;99.90
37478;DHT22;23334;54.316;10.182;2022-10-24T03:47:12;13.20;99.90
37478;DHT22;23334;54.316;10.182;2022-10-24T03:49:38;13.50;99.90
37478;DHT22;23334;54.316;10.182;2022-10-24T03:52:03;13.50;99.90
37478;DHT22;23334;54.316;10.182;2022-10-24T03:54:29;13.30;99.90
37478;DHT22;23334;54.316;10.182;2022-10-24T03:56:55;13.50;99.90
37478;DHT22;23334;54.316;10.182;2022-10-24T03:59:20;13.30;99.90
37478;DHT22;23334;54.316;10.182;2022-10-24T04:01:46;13.30;99.90
37478;DHT22;23334;54.316;10.182;2022-10-24T04:04:11;13.90;99.90
37478;DHT22;23334;54.316;10.182;2022-10-24T04:06:37;13.30;99.90
37478;DHT22;23334;54.316;10.182;2022-10-24T04:09:04;13.50;99.90
37478;DHT22;23334;54.316;10.182;2022-10-24T04:11:29;13.30;99.90
37478;DHT22;23334;54.316;10.182;2022-10-24T04:13:55;13.00;99.90
37478;DHT22;23334;54.316;10.182;2022-10-24T04:16:20;13.40;99.90
37478;DHT22;23334;54.316;10.182;2022-10-24T04:18:48;13.30;99.90
37478;DHT22;23334;54.316;10.182;2022-10-24T04:21:14;13.40;99.90
37478;DHT22;23334;54.316;10.182;2022-10-24T04:23:39;13.20;99.90
37478;DHT22;23334;54.316;10.182;2022-10-24T04:26:07;13.30;99.90
37478;DHT22;23334;54.316;10.182;2022-10-24T04:28:33;13.60;99.90
37478;DHT22;23334;54.316;10.182;2022-10-24T04:30:58;13.20;99.90
37478;DHT22;23334;54.316;10.182;2022-10-24T04:33:24;13.30;99.90
37478;DHT22;23334;54.316;10.182;2022-10-24T04:35:51;13.30;99.90
37478;DHT22;23334;54.316;10.182;2022-10-24T04:38:17;13.10;99.90
37478;DHT22;23334;54.316;10.182;2022-10-24T04:40:51;13.10;99.90
37478;DHT22;23334;54.316;10.182;2022-10-24T04:43:16;13.00;99.90
37478;DHT22;23334;54.316;10.182;2022-10-24T04:45:42;13.50;99.90
37478;DHT22;23334;54.316;10.182;2022-10-24T04:48:08;13.40;99.90
37478;DHT22;23334;54.316;10.182;2022-10-24T04:50:33;13.10;99.90
37478;DHT22;23334;54.316;10.182;2022-10-24T04:52:59;13.30;99.90
37478;DHT22;23334;54.316;10.182;2022-10-24T04:55:26;13.40;99.90
37478;DHT22;23334;54.316;10.182;2022-10-24T04:57:51;13.20;99.90
37478;DHT22;23334;54.316;10.182;2022-10-24T05:00:17;13.70;99.90
37478;DHT22;23334;54.316;10.182;2022-10-24T05:02:42;13.10;99.90
37478;DHT22;23334;54.316;10.182;2022-10-24T05:05:08;13.50;99.90
37478;DHT22;23334;54.316;10.182;2022-10-24T05:07:33;13.60;99.90
37478;DHT22;23334;54.316;10.182;2022-10-24T05:09:59;12.90;99.90
37478;DHT22;23334;54.316;10.182;2022-10-24T05:12:24;13.00;99.90
37478;DHT22;23334;54.316;10.182;2022-10-24T05:14:50;13.60;99.90
37478;DHT22;23334;54.316;10.182;2022-10-24T05:17:15;13.80;99.90
37478;DHT22;23334;54.316;10.182;2022-10-24T05:19:41;12.90;99.90
37478;DHT22;23334;54.316;10.182;2022-10-24T05:22:06;13.00;99.90
37478;DHT22;23334;54.316;10.182;2022-10-24T05:24:32;13.10;99.90
37478;DHT22;23334;54.316;10.182;2022-10-24T05:26:58;13.10;99.90
37478;DHT22;23334;54.316;10.182;2022-10-24T05:29:23;13.40;99.90
37478;DHT22;23334;54.316;10.182;2022-10-24T05:31:49;13.00;99.90
37478;DHT22;23334;54.316;10.182;2022-10-24T05:34:15;12.90;99.90
37478;DHT22;23334;54.316;10.182;2022-10-24T05:36:41;13.00;99.90
37478;DHT22;23334;54.316;10.182;2022-10-24T05:39:06;12.80;99.90
37478;DHT22;23334;54.316;10.182;2022-10-24T05:41:32;12.80;99.90
37478;DHT22;23334;54.316;10.182;2022-10-24T05:43:57;13.00;99.90
37478;DHT22;23334;54.316;10.182;2022-10-24T05:46:23;13.10;99.90
37478;DHT22;23334;54.316;10.182;2022-10-24T05:48:48;13.40;99.90
37478;DHT22;23334;54.316;10.182;2022-10-24T05:51:14;12.80;99.90
37478;DHT22;23334;54.316;10.182;2022-10-24T05:53:39;12.70;99.90
37478;DHT22;23334;54.316;10.182;2022-10-24T05:56:04;12.90;99.90
37478;DHT22;23334;54.316;10.182;2022-10-24T05:58:31;13.10;99.90
37478;DHT22;23334;54.316;10.182;2022-10-24T06:00:56;12.80;99.90
37478;DHT22;23334;54.316;10.182;2022-10-24T06:03:22;12.70;99.90
37478;DHT22;23334;54.316;10.182;2022-10-24T06:05:48;12.70;99.90
37478;DHT22;23334;54.316;10.182;2022-10-24T06:08:14;12.70;99.90
37478;DHT22;23334;54.316;10.182;2022-10-24T06:10:40;12.90;99.90
37478;DHT22;23334;54.316;10.182;2022-10-24T06:13:05;12.80;99.90
37478;DHT22;23334;54.316;10.182;2022-10-24T06:15:31;12.70;99.90
37478;DHT22;23334;54.316;10.182;2022-10-24T06:17:56;13.00;99.90
37478;DHT22;23334;54.316;10.182;2022-10-24T06:20:22;13.30;99.90
37478;DHT22;23334;54.316;10.182;2022-10-24T06:22:49;13.00;99.90
37478;DHT22;23334;54.316;10.182;2022-10-24T06:25:15;12.80;99.90
37478;DHT22;23334;54.316;10.182;2022-10-24T06:27:41;13.00;99.90
37478;DHT22;23334;54.316;10.182;2022-10-24T06:30:07;13.00;99.90
37478;DHT22;23334;54.316;10.182;2022-10-24T06:32:34;13.00;99.90
37478;DHT22;23334;54.316;10.182;2022-10-24T06:35:00;13.00;99.90
37478;DHT22;23334;54.316;10.182;2022-10-24T06:37:26;13.10;99.90
37478;DHT22;23334;54.316;10.182;2022-10-24T06:39:52;13.30;99.90
37478;DHT22;23334;54.316;10.182;2022-10-24T06:42:18;13.10;99.90
37478;DHT22;23334;54.316;10.182;2022-10-24T06:44:44;13.20;99.90
37478;DHT22;23334;54.316;10.182;2022-10-24T06:47:09;13.00;99.90
37478;DHT22;23334;54.316;10.182;2022-10-24T06:49:35;13.20;99.90
37478;DHT22;23334;54.316;10.182;2022-10-24T06:52:00;13.20;99.90
37478;DHT22;23334;54.316;10.182;2022-10-24T06:54:26;13.20;99.90
37478;DHT22;23334;54.316;10.182;2022-10-24T06:56:51;13.30;99.90
37478;DHT22;23334;54.316;10.182;2022-10-24T06:59:17;13.40;99.90
37478;DHT22;23334;54.316;10.182;2022-10-24T07:01:43;13.30;99.90
37478;DHT22;23334;54.316;10.182;2022-10-24T07:04:09;13.20;99.90
37478;DHT22;23334;54.316;10.182;2022-10-24T07:06:35;13.30;99.90
37478;DHT22;23334;54.316;10.182;2022-10-24T07:09:01;13.50;99.90
37478;DHT22;23334;54.316;10.182;2022-10-24T07:11:28;13.40;99.90
37478;DHT22;23334;54.316;10.182;2022-10-24T07:13:53;13.60;99.90
37478;DHT22;23334;54.316;10.182;2022-10-24T07:16:19;13.60;99.90
37478;DHT22;23334;54.316;10.182;2022-10-24T07:18:45;13.60;99.90
37478;DHT22;23334;54.316;10.182;2022-10-24T07:21:15;13.80;99.90
37478;DHT22;23334;54.316;10.182;2022-10-24T07:23:42;13.90;99.90
37478;DHT22;23334;54.316;10.182;2022-10-24T07:26:10;13.70;99.90
37478;DHT22;23334;54.316;10.182;2022-10-24T07:28:37;14.00;99.90
37478;DHT22;23334;54.316;10.182;2022-10-24T07:31:03;14.20;99.90
37478;DHT22;23334;54.316;10.182;2022-10-24T07:33:29;14.00;99.90
37478;DHT22;23334;54.316;10.182;2022-10-24T07:35:55;14.20;99.90
37478;DHT22;23334;54.316;10.182;2022-10-24T07:38:21;14.40;99.90
37478;DHT22;23334;54.316;10.182;2022-10-24T07:40:46;14.50;99.90
37478;DHT22;23334;54.316;10.182;2022-10-24T07:43:12;14.80;99.90
37478;DHT22;23334;54.316;10.182;2022-10-24T07:45:39;14.80;99.90
37478;DHT22;23334;54.316;10.182;2022-10-24T07:48:05;14.80;99.90
37478;DHT22;23334;54.316;10.182;2022-10-24T07:50:31;14.80;99.90
37478;DHT22;23334;54.316;10.182;2022-10-24T07:52:57;14.90;99.90
37478;DHT22;23334;54.316;10.182;2022-10-24T07:55:22;15.00;99.90
37478;DHT22;23334;54.316;10.182;2022-10-24T07:57:48;15.30;99.90
37478;DHT22;23334;54.316;10.182;2022-10-24T08:00:14;15.10;99.90
37478;DHT22;23334;54.316;10.182;2022-10-24T08:02:39;15.30;99.90
37478;DHT22;23334;54.316;10.182;2022-10-24T08:05:06;15.30;99.90
37478;DHT22;23334;54.316;10.182;2022-10-24T08:07:34;15.60;99.90
37478;DHT22;23334;54.316;10.182;2022-10-24T08:10:00;15.70;99.90
37478;DHT22;23334;54.316;10.182;2022-10-24T08:12:25;16.80;99.90
37478;DHT22;23334;54.316;10.182;2022-10-24T08:14:51;16.80;99.90
37478;DHT22;23334;54.316;10.182;2022-10-24T08:17:17;17.70;99.90
37478;DHT22;23334;54.316;10.182;2022-10-24T08:19:44;18.70;99.90
37478;DHT22;23334;54.316;10.182;2022-10-24T08:22:10;20.20;99.90
37478;DHT22;23334;54.316;10.182;2022-10-24T08:24:36;21.40;99.90
37478;DHT22;23334;54.316;10.182;2022-10-24T08:27:02;22.80;99.90
37478;DHT22;23334;54.316;10.182;2022-10-24T08:29:27;24.00;99.90
37478;DHT22;23334;54.316;10.182;2022-10-24T08:31:54;23.90;99.90
37478;DHT22;23334;54.316;10.182;2022-10-24T08:34:21;23.30;99.90
37478;DHT22;23334;54.316;10.182;2022-10-24T08:36:48;24.00;99.90
37478;DHT22;23334;54.316;10.182;2022-10-24T08:39:14;25.90;99.90
37478;DHT22;23334;54.316;10.182;2022-10-24T08:41:52;26.80;99.90
37478;DHT22;23334;54.316;10.182;2022-10-24T08:44:29;27.30;99.90
37478;DHT22;23334;54.316;10.182;2022-10-24T08:47:05;27.10;99.90
37478;DHT22;23334;54.316;10.182;2022-10-24T08:54:58;27.20;99.90
37478;DHT22;23334;54.316;10.182;2022-10-24T08:57:31;28.10;99.90
37478;DHT22;23334;54.316;10.182;2022-10-24T09:00:00;28.80;99.90
37478;DHT22;23334;54.316;10.182;2022-10-24T09:02:29;29.10;99.90
37478;DHT22;23334;54.316;10.182;2022-10-24T09:04:59;29.30;99.90
37478;DHT22;23334;54.316;10.182;2022-10-24T09:07:26;29.60;99.90
37478;DHT22;23334;54.316;10.182;2022-10-24T09:10:09;28.90;99.90
37478;DHT22;23334;54.316;10.182;2022-10-24T09:12:37;30.70;99.90
37478;DHT22;23334;54.316;10.182;2022-10-24T09:15:13;31.20;99.90
37478;DHT22;23334;54.316;10.182;2022-10-24T13:08:26;18.20;99.90
37478;DHT22;23334;54.316;10.182;2022-10-24T13:11:24;18.30;99.90
37478;DHT22;23334;54.316;10.182;2022-10-24T13:17:04;18.30;99.90
37478;DHT22;23334;54.316;10.182;2022-10-24T13:19:30;18.30;99.90
37478;DHT22;23334;54.316;10.182;2022-10-24T13:21:58;18.30;99.90
37478;DHT22;23334;54.316;10.182;2022-10-24T13:24:30;18.20;99.90
37478;DHT22;23334;54.316;10.182;2022-10-24T13:42:31;18.30;99.90
37478;DHT22;23334;54.316;10.182;2022-10-24T13:45:02;18.10;99.90
37478;DHT22;23334;54.316;10.182;2022-10-24T13:47:34;18.00;99.90
37478;DHT22;23334;54.316;10.182;2022-10-24T13:50:16;17.90;99.90
37478;DHT22;23334;54.316;10.182;2022-10-24T13:52:46;17.70;99.90
37478;DHT22;23334;54.316;10.182;2022-10-24T13:55:26;17.60;99.90
37478;DHT22;23334;54.316;10.182;2022-10-24T13:58:07;17.80;99.90
37478;DHT22;23334;54.316;10.182;2022-10-24T14:00:41;17.80;99.90
37478;DHT22;23334;54.316;10.182;2022-10-24T14:03:16;17.80;99.90
37478;DHT22;23334;54.316;10.182;2022-10-24T14:05:54;17.50;99.90
37478;DHT22;23334;54.316;10.182;2022-10-24T14:08:25;17.50;99.90
37478;DHT22;23334;54.316;10.182;2022-10-24T14:10:54;17.60;99.90
37478;DHT22;23334;54.316;10.182;2022-10-24T14:13:21;17.10;99.90
37478;DHT22;23334;54.316;10.182;2022-10-24T14:15:49;16.80;99.90
37478;DHT22;23334;54.316;10.182;2022-10-24T14:18:15;16.60;99.90
37478;DHT22;23334;54.316;10.182;2022-10-24T14:20:41;17.30;99.90
37478;DHT22;23334;54.316;10.182;2022-10-24T14:23:24;16.70;99.90
37478;DHT22;23334;54.316;10.182;2022-10-24T14:25:59;17.00;99.90
37478;DHT22;23334;54.316;10.182;2022-10-24T14:28:32;16.90;99.90
37478;DHT22;23334;54.316;10.182;2022-10-24T14:31:06;16.80;99.90
37478;DHT22;23334;54.316;10.182;2022-10-24T14:33:42;15.90;99.90
37478;DHT22;23334;54.316;10.182;2022-10-24T14:36:08;15.90;99.90
37478;DHT22;23334;54.316;10.182;2022-10-24T14:38:35;16.50;99.90
37478;DHT22;23334;54.316;10.182;2022-10-24T14:41:01;16.10;99.90
37478;DHT22;23334;54.316;10.182;2022-10-24T14:43:28;16.40;99.90
37478;DHT22;23334;54.316;10.182;2022-10-24T14:48:47;16.30;99.90
37478;DHT22;23334;54.316;10.182;2022-10-24T14:51:26;15.80;99.90
37478;DHT22;23334;54.316;10.182;2022-10-24T14:53:53;15.90;99.90
37478;DHT22;23334;54.316;10.182;2022-10-24T14:58:51;15.90;99.90
37478;DHT22;23334;54.316;10.182;2022-10-24T15:01:17;15.90;99.90
37478;DHT22;23334;54.316;10.182;2022-10-24T15:04:00;15.60;99.90
37478;DHT22;23334;54.316;10.182;2022-10-24T15:06:28;16.10;99.90
37478;DHT22;23334;54.316;10.182;2022-10-24T15:09:20;15.60;99.90
37478;DHT22;23334;54.316;10.182;2022-10-24T15:11:57;15.80;99.90
37478;DHT22;23334;54.316;10.182;2022-10-24T15:17:26;15.90;99.90
37478;DHT22;23334;54.316;10.182;2022-10-24T15:20:00;15.90;99.90
37478;DHT22;23334;54.316;10.182;2022-10-24T15:22:34;15.80;99.90
37478;DHT22;23334;54.316;10.182;2022-10-24T15:25:05;15.40;99.90
37478;DHT22;23334;54.316;10.182;2022-10-24T15:27:40;15.60;99.90
37478;DHT22;23334;54.316;10.182;2022-10-24T15:30:27;15.20;99.90
37478;DHT22;23334;54.316;10.182;2022-10-24T15:32:54;15.50;99.90
37478;DHT22;23334;54.316;10.182;2022-10-24T15:35:20;15.40;99.90
37478;DHT22;23334;54.316;10.182;2022-10-24T15:38:22;15.40;99.90
37478;DHT22;23334;54.316;10.182;2022-10-24T15:40:47;15.30;99.90
37478;DHT22;23334;54.316;10.182;2022-10-24T15:43:16;15.40;99.90
37478;DHT22;23334;54.316;10.182;2022-10-24T15:45:42;15.10;99.90
37478;DHT22;23334;54.316;10.182;2022-10-24T15:48:08;15.10;99.90
37478;DHT22;23334;54.316;10.182;2022-10-24T15:50:34;15.30;99.90
37478;DHT22;23334;54.316;10.182;2022-10-24T15:53:02;14.90;99.90
37478;DHT22;23334;54.316;10.182;2022-10-24T15:55:29;14.70;99.90
37478;DHT22;23334;54.316;10.182;2022-10-24T15:57:55;14.70;99.90
37478;DHT22;23334;54.316;10.182;2022-10-24T16:00:22;14.90;99.90
37478;DHT22;23334;54.316;10.182;2022-10-24T16:02:50;15.10;99.90
37478;DHT22;23334;54.316;10.182;2022-10-24T16:05:22;14.70;99.90
37478;DHT22;23334;54.316;10.182;2022-10-24T16:07:49;15.10;99.90
37478;DHT22;23334;54.316;10.182;2022-10-24T16:10:17;14.60;99.90
37478;DHT22;23334;54.316;10.182;2022-10-24T16:12:44;14.50;99.90
37478;DHT22;23334;54.316;10.182;2022-10-24T16:17:43;14.10;99.90
37478;DHT22;23334;54.316;10.182;2022-10-24T16:20:09;14.90;99.90
37478;DHT22;23334;54.316;10.182;2022-10-24T16:22:34;14.50;99.90
37478;DHT22;23334;54.316;10.182;2022-10-24T16:25:00;14.40;99.90
37478;DHT22;23334;54.316;10.182;2022-10-24T16:27:25;14.80;99.90
37478;DHT22;23334;54.316;10.182;2022-10-24T16:29:51;14.80;99.90
37478;DHT22;23334;54.316;10.182;2022-10-24T16:32:17;14.70;99.90
37478;DHT22;23334;54.316;10.182;2022-10-24T16:34:42;14.70;99.90
37478;DHT22;23334;54.316;10.182;2022-10-24T16:37:13;14.60;99.90
37478;DHT22;23334;54.316;10.182;2022-10-24T16:39:39;14.30;99.90
37478;DHT22;23334;54.316;10.182;2022-10-24T16:42:04;14.70;99.90
37478;DHT22;23334;54.316;10.182;2022-10-24T16:44:31;14.30;99.90
37478;DHT22;23334;54.316;10.182;2022-10-24T16:46:59;14.70;99.90
37478;DHT22;23334;54.316;10.182;2022-10-24T16:49:25;14.60;99.90
37478;DHT22;23334;54.316;10.182;2022-10-24T16:51:50;14.60;99.90
37478;DHT22;23334;54.316;10.182;2022-10-24T16:54:16;14.60;99.90
37478;DHT22;23334;54.316;10.182;2022-10-24T16:59:09;14.60;99.90
37478;DHT22;23334;54.316;10.182;2022-10-24T17:01:34;14.50;99.90
37478;DHT22;23334;54.316;10.182;2022-10-24T17:04:00;14.50;99.90
37478;DHT22;23334;54.316;10.182;2022-10-24T17:06:25;14.20;99.90
37478;DHT22;23334;54.316;10.182;2022-10-24T17:08:51;14.30;99.90
37478;DHT22;23334;54.316;10.182;2022-10-24T17:11:16;14.50;99.90
37478;DHT22;23334;54.316;10.182;2022-10-24T17:13:42;14.60;99.90
37478;DHT22;23334;54.316;10.182;2022-10-24T17:16:09;14.60;99.90
37478;DHT22;23334;54.316;10.182;2022-10-24T17:18:35;15.00;99.90
37478;DHT22;23334;54.316;10.182;2022-10-24T17:21:01;14.70;99.90
37478;DHT22;23334;54.316;10.182;2022-10-24T17:23:27;14.80;99.90
37478;DHT22;23334;54.316;10.182;2022-10-24T17:25:53;14.80;99.90
37478;DHT22;23334;54.316;10.182;2022-10-24T17:28:21;14.90;99.90
37478;DHT22;23334;54.316;10.182;2022-10-24T17:30:46;15.00;99.90
37478;DHT22;23334;54.316;10.182;2022-10-24T17:33:13;15.00;99.90
37478;DHT22;23334;54.316;10.182;2022-10-24T17:35:43;15.10;99.90
37478;DHT22;23334;54.316;10.182;2022-10-24T17:40:44;14.80;99.90
37478;DHT22;23334;54.316;10.182;2022-10-24T17:43:22;18.00;99.90
37478;DHT22;23334;54.316;10.182;2022-10-24T17:45:48;15.20;99.90
37478;DHT22;23334;54.316;10.182;2022-10-24T17:48:14;15.30;99.90
37478;DHT22;23334;54.316;10.182;2022-10-24T17:50:40;15.10;99.90
37478;DHT22;23334;54.316;10.182;2022-10-24T17:53:06;14.70;99.90
37478;DHT22;23334;54.316;10.182;2022-10-24T17:55:33;15.10;99.90
37478;DHT22;23334;54.316;10.182;2022-10-24T17:58:00;14.90;99.90
37478;DHT22;23334;54.316;10.182;2022-10-24T18:00:25;15.10;99.90
37478;DHT22;23334;54.316;10.182;2022-10-24T18:02:51;15.10;99.90
37478;DHT22;23334;54.316;10.182;2022-10-24T18:05:19;14.90;99.90
37478;DHT22;23334;54.316;10.182;2022-10-24T18:07:46;14.70;99.90
37478;DHT22;23334;54.316;10.182;2022-10-24T18:10:12;14.80;99.90
37478;DHT22;23334;54.316;10.182;2022-10-24T18:12:39;14.50;99.90
37478;DHT22;23334;54.316;10.182;2022-10-24T18:15:07;14.40;99.90
37478;DHT22;23334;54.316;10.182;2022-10-24T18:17:33;14.80;99.90
37478;DHT22;23334;54.316;10.182;2022-10-24T18:19:58;14.80;99.90
37478;DHT22;23334;54.316;10.182;2022-10-24T18:22:24;14.40;99.90
37478;DHT22;23334;54.316;10.182;2022-10-24T18:24:50;14.10;99.90
37478;DHT22;23334;54.316;10.182;2022-10-24T18:27:15;14.00;99.90
37478;DHT22;23334;54.316;10.182;2022-10-24T18:29:41;14.10;99.90
37478;DHT22;23334;54.316;10.182;2022-10-24T18:32:06;14.10;99.90
37478;DHT22;23334;54.316;10.182;2022-10-24T18:34:38;13.90;99.90
37478;DHT22;23334;54.316;10.182;2022-10-24T18:37:03;14.10;99.90
37478;DHT22;23334;54.316;10.182;2022-10-24T18:39:29;13.90;99.90
37478;DHT22;23334;54.316;10.182;2022-10-24T18:42:01;13.60;99.90
37478;DHT22;23334;54.316;10.182;2022-10-24T18:44:31;13.90;99.90
37478;DHT22;23334;54.316;10.182;2022-10-24T18:47:03;13.90;99.90
37478;DHT22;23334;54.316;10.182;2022-10-24T18:49:30;13.80;99.90
37478;DHT22;23334;54.316;10.182;2022-10-24T18:54:38;13.10;99.90
37478;DHT22;23334;54.316;10.182;2022-10-24T18:57:25;14.30;99.90
37478;DHT22;23334;54.316;10.182;2022-10-24T18:59:51;13.60;99.90
37478;DHT22;23334;54.316;10.182;2022-10-24T19:02:37;13.80;99.90
37478;DHT22;23334;54.316;10.182;2022-10-24T19:05:21;13.60;99.90
37478;DHT22;23334;54.316;10.182;2022-10-24T19:07:48;13.80;99.90
37478;DHT22;23334;54.316;10.182;2022-10-24T19:10:19;13.60;99.90
37478;DHT22;23334;54.316;10.182;2022-10-24T19:12:45;13.80;99.90
37478;DHT22;23334;54.316;10.182;2022-10-24T19:15:11;13.60;99.90
37478;DHT22;23334;54.316;10.182;2022-10-24T19:17:37;13.80;99.90
37478;DHT22;23334;54.316;10.182;2022-10-24T19:20:03;13.70;99.90
37478;DHT22;23334;54.316;10.182;2022-10-24T19:22:29;13.60;99.90
37478;DHT22;23334;54.316;10.182;2022-10-24T19:24:55;13.50;99.90
37478;DHT22;23334;54.316;10.182;2022-10-24T19:27:24;13.30;99.90
37478;DHT22;23334;54.316;10.182;2022-10-24T19:29:49;13.60;99.90
37478;DHT22;23334;54.316;10.182;2022-10-24T19:32:15;13.50;99.90
37478;DHT22;23334;54.316;10.182;2022-10-24T19:34:40;13.60;99.90
37478;DHT22;23334;54.316;10.182;2022-10-24T19:37:06;13.40;99.90
37478;DHT22;23334;54.316;10.182;2022-10-24T19:39:32;13.70;99.90
37478;DHT22;23334;54.316;10.182;2022-10-24T19:41:57;13.40;99.90
37478;DHT22;23334;54.316;10.182;2022-10-24T19:44:23;13.40;99.90
37478;DHT22;23334;54.316;10.182;2022-10-24T19:46:49;13.30;99.90
37478;DHT22;23334;54.316;10.182;2022-10-24T19:49:14;13.30;99.90
37478;DHT22;23334;54.316;10.182;2022-10-24T19:51:40;13.20;99.90
37478;DHT22;23334;54.316;10.182;2022-10-24T19:54:06;13.10;99.90
37478;DHT22;23334;54.316;10.182;2022-10-24T19:58:58;13.00;99.90
37478;DHT22;23334;54.316;10.182;2022-10-24T20:01:26;12.90;99.90
37478;DHT22;23334;54.316;10.182;2022-10-24T20:03:53;12.90;99.90
37478;DHT22;23334;54.316;10.182;2022-10-24T20:06:19;12.70;99.90
37478;DHT22;23334;54.316;10.182;2022-10-24T20:08:46;12.90;99.90